Time;durP1;ratioP1;P1;durP2;ratioP2;P2;SDS_P1;SDS_P2;PMS_P1;PMS_P2;Temp;Humidity;BMP_temperature;BMP_pressure;BME280_temperature;BME280_humidity;BME280_pressure;Samples;Min_cycle;Max_cycle;Signal;HPM_P1;HPM_P2
2021/01/04 00:01:29;;;;;;;30.00;19.55;;;;;;;;;;6269464;22;20003;-81
2021/01/04 00:04:05;;;;;;;25.00;17.40;;;;;;;;;;6270052;22;20117;-81
2021/01/04 00:06:31;;;;;;;28.15;17.90;;;;;;;;;;6269630;22;20000;-81
2021/01/04 00:09:18;;;;;;;26.92;17.27;;;;;;;;;;6269883;22;20061;-81
2021/01/04 00:12:02;;;;;;;23.40;15.75;;;;;;;;;;6269418;22;20019;-81
2021/01/04 00:14:43;;;;;;;26.70;18.27;;;;;;;;;;6268765;22;20007;-81
2021/01/04 00:17:23;;;;;;;27.00;16.95;;;;;;;;;;6242404;22;20008;-81
2021/01/04 00:20:09;;;;;;;28.25;18.17;;;;;;;;;;6269270;22;20007;-78
2021/01/04 00:22:38;;;;;;;28.05;18.25;;;;;;;;;;6243461;22;20004;-80
2021/01/04 00:25:20;;;;;;;30.25;18.50;;;;;;;;;;6268706;22;20004;-81
2021/01/04 00:27:46;;;;;;;29.42;18.70;;;;;;;;;;6269040;22;20006;-80
2021/01/04 00:30:18;;;;;;;29.92;19.73;;;;;;;;;;6269102;22;20000;-80
2021/01/04 00:32:45;;;;;;;29.83;19.25;;;;;;;;;;6242063;22;20007;-81
2021/01/04 00:35:13;;;;;;;29.55;18.90;;;;;;;;;;6268435;22;20026;-81
2021/01/04 00:38:04;;;;;;;27.20;18.13;;;;;;;;;;6269746;22;20420;-80
2021/01/04 00:40:49;;;;;;;31.67;19.67;;;;;;;;;;6241978;22;20930;-81
2021/01/04 00:43:31;;;;;;;28.73;18.73;;;;;;;;;;6241473;22;20008;-80
2021/01/04 00:45:57;;;;;;;30.65;19.70;;;;;;;;;;6266566;22;20010;-80
2021/01/04 00:48:35;;;;;;;32.63;20.65;;;;;;;;;;6268780;22;20003;-81
2021/01/04 00:51:20;;;;;;;31.63;20.58;;;;;;;;;;6267561;22;20004;-81
2021/01/04 00:53:47;;;;;;;34.78;21.25;;;;;;;;;;6268082;22;20046;-81
2021/01/04 00:56:24;;;;;;;32.83;21.67;;;;;;;;;;6267100;22;20121;-81
2021/01/04 00:59:03;;;;;;;31.92;19.40;;;;;;;;;;6241242;22;20437;-81
2021/01/04 01:01:43;;;;;;;31.60;19.88;;;;;;;;;;6240858;22;19995;-80
2021/01/04 01:04:18;;;;;;;31.25;19.45;;;;;;;;;;6267792;22;20429;-81
2021/01/04 01:06:49;;;;;;;32.17;19.77;;;;;;;;;;6268634;22;20027;-81
2021/01/04 01:09:16;;;;;;;31.48;20.02;;;;;;;;;;6241011;22;20012;-81
2021/01/04 01:11:55;;;;;;;31.70;19.90;;;;;;;;;;6240619;22;20004;-81
2021/01/04 01:14:21;;;;;;;32.78;21.85;;;;;;;;;;6267068;22;20102;-81
2021/01/04 01:17:05;;;;;;;33.97;21.23;;;;;;;;;;6267870;22;20023;-81
2021/01/04 01:19:41;;;;;;;34.33;21.08;;;;;;;;;;6240448;22;20065;-81
2021/01/04 01:22:09;;;;;;;31.92;20.20;;;;;;;;;;6241160;22;20082;-81
2021/01/04 01:24:35;;;;;;;33.80;21.23;;;;;;;;;;6268180;22;20000;-81
2021/01/04 01:27:10;;;;;;;31.00;19.73;;;;;;;;;;6268497;22;20007;-81
2021/01/04 01:29:36;;;;;;;32.03;20.42;;;;;;;;;;6268172;22;19996;-80
2021/01/04 01:32:07;;;;;;;29.92;19.38;;;;;;;;;;6241556;22;19992;-80
2021/01/04 01:34:43;;;;;;;32.03;20.45;;;;;;;;;;6240216;22;20038;-81
2021/01/04 01:37:19;;;;;;;32.88;20.00;;;;;;;;;;6269019;22;20004;-81
2021/01/04 01:39:45;;;;;;;32.20;20.30;;;;;;;;;;6241426;22;20685;-80
2021/01/04 01:42:17;;;;;;;31.08;20.25;;;;;;;;;;6268479;22;20106;-81
2021/01/04 01:45:02;;;;;;;30.50;20.50;;;;;;;;;;6240792;22;20038;-81
2021/01/04 01:47:32;;;;;;;32.40;21.00;;;;;;;;;;6241285;22;20318;-81
2021/01/04 01:50:03;;;;;;;33.47;20.77;;;;;;;;;;6268302;22;20000;-81
2021/01/04 01:52:41;;;;;;;30.30;20.50;;;;;;;;;;6268708;22;20278;-80
2021/01/04 01:55:20;;;;;;;35.13;20.77;;;;;;;;;;6240896;22;20010;-81
2021/01/04 01:58:05;;;;;;;31.85;20.30;;;;;;;;;;6268823;22;19999;-80
2021/01/04 02:00:31;;;;;;;32.55;20.77;;;;;;;;;;6268425;22;20004;-80
2021/01/04 02:03:05;;;;;;;32.95;19.83;;;;;;;;;;6268917;22;20034;-80
2021/01/04 02:05:38;;;;;;;35.80;22.00;;;;;;;;;;6267954;22;20016;-81
2021/01/04 02:08:07;;;;;;;34.55;22.67;;;;;;;;;;6268656;22;20056;-81
2021/01/04 02:10:39;;;;;;;33.03;21.08;;;;;;;;;;6241502;22;20026;-81
2021/01/04 02:13:17;;;;;;;31.13;20.75;;;;;;;;;;6268575;22;20498;-81
2021/01/04 02:15:49;;;;;;;31.80;20.92;;;;;;;;;;6267856;22;20265;-81
2021/01/04 02:18:18;;;;;;;35.08;21.60;;;;;;;;;;6241513;22;20578;-81
2021/01/04 02:21:03;;;;;;;38.00;24.17;;;;;;;;;;6241191;22;20059;-80
2021/01/04 02:23:29;;;;;;;40.03;24.63;;;;;;;;;;6268506;22;20401;-79
2021/01/04 02:25:57;;;;;;;42.58;25.75;;;;;;;;;;6256432;22;20838;-81
2021/01/04 02:28:26;;;;;;;41.53;25.55;;;;;;;;;;6240770;22;20000;-81
2021/01/04 02:30:52;;;;;;;41.50;25.33;;;;;;;;;;6268550;22;20020;-80
2021/01/04 02:33:19;;;;;;;39.92;24.17;;;;;;;;;;6268481;22;20007;-79
2021/01/04 02:35:46;;;;;;;40.25;24.95;;;;;;;;;;6240402;22;20091;-81
2021/01/04 02:38:12;;;;;;;43.17;25.83;;;;;;;;;;6268569;22;20032;-80
2021/01/04 02:40:38;;;;;;;41.88;25.63;;;;;;;;;;6268212;22;20010;-80
2021/01/04 02:43:05;;;;;;;43.42;26.10;;;;;;;;;;6268449;22;20337;-80
2021/01/04 02:45:32;;;;;;;41.78;24.77;;;;;;;;;;6240626;22;20016;-81
2021/01/04 02:48:21;;;;;;;42.97;25.83;;;;;;;;;;6241110;22;20246;-81
2021/01/04 02:50:47;;;;;;;46.13;26.77;;;;;;;;;;6241428;22;20036;-80
2021/01/04 02:53:38;;;;;;;42.10;25.65;;;;;;;;;;6243440;22;20004;-81
2021/01/04 02:56:16;;;;;;;45.38;27.10;;;;;;;;;;6268166;22;20079;-81
2021/01/04 02:58:42;;;;;;;43.92;26.23;;;;;;;;;;6243066;22;20087;-80
2021/01/04 03:01:11;;;;;;;45.65;26.35;;;;;;;;;;6243954;22;20023;-80
2021/01/04 03:03:38;;;;;;;42.40;24.63;;;;;;;;;;6273188;22;20106;-81
2021/01/04 03:06:08;;;;;;;40.38;24.52;;;;;;;;;;6272751;22;20010;-80
2021/01/04 03:08:33;;;;;;;41.25;25.02;;;;;;;;;;6273583;22;20003;-81
2021/01/04 03:11:00;;;;;;;40.15;24.23;;;;;;;;;;6245954;22;20494;-81
2021/01/04 03:13:25;;;;;;;35.70;22.35;;;;;;;;;;6273637;22;20027;-80
2021/01/04 03:16:04;;;;;;;34.60;22.13;;;;;;;;;;6272576;22;20003;-80
2021/01/04 03:18:33;;;;;;;37.30;23.00;;;;;;;;;;6273150;22;20004;-80
2021/01/04 03:21:01;;;;;;;33.63;22.02;;;;;;;;;;6273314;22;20344;-79
2021/01/04 03:23:27;;;;;;;35.92;22.00;;;;;;;;;;6273436;22;20007;-80
2021/01/04 03:25:55;;;;;;;32.95;21.65;;;;;;;;;;6272356;22;20003;-80
2021/01/04 03:28:21;;;;;;;;;;;;;;;;;;6273987;22;20010;-81
2021/01/04 03:30:47;;;;;;;36.00;21.88;;;;;;;;;;6273142;22;19899;-80
2021/01/04 03:33:13;;;;;;;34.13;21.05;;;;;;;;;;6272945;22;20054;-81
2021/01/04 03:35:39;;;;;;;36.25;21.35;;;;;;;;;;6272718;22;20003;-79
2021/01/04 03:38:05;;;;;;;34.90;22.02;;;;;;;;;;6273546;22;20004;-80
2021/01/04 03:40:31;;;;;;;36.65;22.92;;;;;;;;;;6273197;22;20087;-81
2021/01/04 03:42:57;;;;;;;33.60;22.00;;;;;;;;;;6273327;22;20401;-80
2021/01/04 03:45:23;;;;;;;36.20;22.98;;;;;;;;;;6245145;22;20031;-81
2021/01/04 03:47:49;;;;;;;35.63;22.45;;;;;;;;;;6272943;22;20000;-81
2021/01/04 03:50:16;;;;;;;32.97;21.90;;;;;;;;;;6245713;22;20000;-81
2021/01/04 03:52:43;;;;;;;37.88;21.60;;;;;;;;;;6246385;22;20000;-80
2021/01/04 03:55:10;;;;;;;35.05;22.15;;;;;;;;;;6266085;22;20007;-80
2021/01/04 03:57:36;;;;;;;33.90;21.17;;;;;;;;;;6273099;22;20003;-81
2021/01/04 04:00:02;;;;;;;33.42;21.70;;;;;;;;;;6272861;22;20521;-81
2021/01/04 04:02:28;;;;;;;31.13;20.38;;;;;;;;;;6271013;22;20027;-81
2021/01/04 04:04:54;;;;;;;33.25;21.40;;;;;;;;;;6269685;22;20015;-79
2021/01/04 04:07:20;;;;;;;36.10;22.75;;;;;;;;;;6243237;22;20652;-81
2021/01/04 04:09:47;;;;;;;37.80;22.35;;;;;;;;;;6270007;22;20000;-81
2021/01/04 04:12:13;;;;;;;38.05;23.70;;;;;;;;;;6268891;22;20004;-81
2021/01/04 04:14:39;;;;;;;37.45;23.40;;;;;;;;;;6268672;22;20447;-81
2021/01/04 04:17:05;;;;;;;32.45;21.15;;;;;;;;;;6268961;22;20000;-80
2021/01/04 04:19:31;;;;;;;37.90;23.83;;;;;;;;;;6269657;22;20008;-80
2021/01/04 04:21:57;;;;;;;34.42;22.35;;;;;;;;;;6269227;22;20425;-79
2021/01/04 04:24:23;;;;;;;40.80;24.75;;;;;;;;;;6268272;22;20095;-80
2021/01/04 04:26:52;;;;;;;36.65;22.63;;;;;;;;;;6269281;22;20447;-81
2021/01/04 04:29:18;;;;;;;40.45;24.92;;;;;;;;;;6269274;22;20053;-81
2021/01/04 04:31:45;;;;;;;44.33;26.45;;;;;;;;;;6268886;22;20023;-81
2021/01/04 04:34:11;;;;;;;40.20;24.48;;;;;;;;;;6241275;22;20483;-80
2021/01/04 04:36:40;;;;;;;41.20;24.27;;;;;;;;;;6242790;22;20340;-80
2021/01/04 04:39:06;;;;;;;39.65;24.08;;;;;;;;;;6242372;22;20015;-81
2021/01/04 04:41:37;;;;;;;41.75;25.67;;;;;;;;;;6268823;22;20074;-79
2021/01/04 04:44:07;;;;;;;45.90;27.73;;;;;;;;;;6268809;22;20000;-79
2021/01/04 04:46:41;;;;;;;48.28;27.90;;;;;;;;;;6241767;22;20095;-80
2021/01/04 04:49:13;;;;;;;45.33;26.27;;;;;;;;;;6269955;22;20000;-81
2021/01/04 04:51:52;;;;;;;43.35;25.88;;;;;;;;;;6242707;22;20002;-80
2021/01/04 04:54:18;;;;;;;39.35;24.10;;;;;;;;;;6241173;22;20086;-80
2021/01/04 04:56:47;;;;;;;37.45;22.83;;;;;;;;;;6269603;22;20023;-80
2021/01/04 04:59:22;;;;;;;35.75;22.38;;;;;;;;;;6269814;22;20006;-81
2021/01/04 05:01:54;;;;;;;36.75;22.77;;;;;;;;;;6241345;22;20457;-80
2021/01/04 05:04:23;;;;;;;36.28;22.38;;;;;;;;;;6268755;22;20074;-81
2021/01/04 05:06:52;;;;;;;35.33;22.45;;;;;;;;;;6269548;22;20003;-81
2021/01/04 05:09:37;;;;;;;33.92;21.90;;;;;;;;;;6241309;22;20043;-80
2021/01/04 05:12:07;;;;;;;34.80;22.98;;;;;;;;;;6242058;22;20003;-81
2021/01/04 05:14:36;;;;;;;37.63;22.92;;;;;;;;;;6241524;22;20038;-81
2021/01/04 05:17:20;;;;;;;38.35;23.88;;;;;;;;;;6241403;22;20000;-81
2021/01/04 05:20:04;;;;;;;33.00;21.67;;;;;;;;;;6269098;22;20000;-81
2021/01/04 05:22:49;;;;;;;37.40;23.52;;;;;;;;;;6268877;22;20003;-80
2021/01/04 05:25:33;;;;;;;42.40;25.25;;;;;;;;;;6268566;22;20077;-81
2021/01/04 05:27:59;;;;;;;43.00;26.10;;;;;;;;;;6269445;22;20004;-80
2021/01/04 05:30:44;;;;;;;43.65;25.90;;;;;;;;;;6269133;22;20080;-80
2021/01/04 05:33:29;;;;;;;42.15;25.55;;;;;;;;;;6268736;22;20332;-79
2021/01/04 05:36:00;;;;;;;45.42;26.88;;;;;;;;;;6241499;22;20024;-80
2021/01/04 05:38:34;;;;;;;44.17;26.83;;;;;;;;;;6241080;22;20405;-80
2021/01/04 05:41:26;;;;;;;40.03;24.63;;;;;;;;;;6268885;22;20160;-80
2021/01/04 05:43:52;;;;;;;40.85;24.50;;;;;;;;;;6269050;22;20008;-81
2021/01/04 05:46:18;;;;;;;41.10;25.48;;;;;;;;;;6267372;22;20072;-80
2021/01/04 05:48:44;;;;;;;43.22;25.58;;;;;;;;;;6241731;22;20004;-79
2021/01/04 05:51:17;;;;;;;41.80;24.85;;;;;;;;;;6241472;22;20004;-81
2021/01/04 05:53:44;;;;;;;44.78;25.42;;;;;;;;;;6241576;22;20026;-80
2021/01/04 05:56:10;;;;;;;38.25;23.67;;;;;;;;;;6241021;22;19996;-81
2021/01/04 05:58:36;;;;;;;41.17;25.33;;;;;;;;;;6241881;22;20003;-80
2021/01/04 06:01:17;;;;;;;40.45;24.00;;;;;;;;;;6268089;22;20082;-81
2021/01/04 06:03:43;;;;;;;40.20;24.88;;;;;;;;;;6241645;22;20392;-80
2021/01/04 06:06:28;;;;;;;41.20;24.50;;;;;;;;;;6241361;22;20079;-81
2021/01/04 06:09:00;;;;;;;38.45;23.27;;;;;;;;;;6268587;22;20010;-80
2021/01/04 06:11:26;;;;;;;36.53;23.35;;;;;;;;;;6268734;22;20011;-81
2021/01/04 06:13:56;;;;;;;36.30;22.48;;;;;;;;;;6241576;22;20313;-81
2021/01/04 06:16:27;;;;;;;41.38;25.60;;;;;;;;;;6240215;22;20004;-80
2021/01/04 06:18:59;;;;;;;42.35;26.10;;;;;;;;;;6268900;22;20083;-81
2021/01/04 06:21:25;;;;;;;43.50;25.90;;;;;;;;;;6268715;22;20053;-79
2021/01/04 06:23:52;;;;;;;44.45;26.75;;;;;;;;;;6241224;22;20018;-81
2021/01/04 06:26:20;;;;;;;47.08;27.40;;;;;;;;;;6242341;22;20007;-80
2021/01/04 06:28:58;;;;;;;46.55;27.45;;;;;;;;;;6244175;22;20357;-81
2021/01/04 06:31:42;;;;;;;42.53;25.00;;;;;;;;;;6270453;22;20099;-79
2021/01/04 06:34:14;;;;;;;42.38;25.67;;;;;;;;;;6242665;22;20078;-81
2021/01/04 06:36:41;;;;;;;43.83;26.10;;;;;;;;;;6270423;22;20337;-82
2021/01/04 06:39:12;;;;;;;44.20;27.15;;;;;;;;;;6270986;22;20026;-81
2021/01/04 06:41:39;;;;;;;45.58;25.90;;;;;;;;;;6243528;22;20429;-81
2021/01/04 06:44:10;;;;;;;45.42;27.20;;;;;;;;;;6242581;22;20004;-80
2021/01/04 06:46:44;;;;;;;48.15;27.48;;;;;;;;;;6270397;22;20031;-80
2021/01/04 06:49:13;;;;;;;46.92;27.05;;;;;;;;;;6243125;22;20087;-81
2021/01/04 06:51:43;;;;;;;47.38;27.90;;;;;;;;;;6235506;22;20086;-81
2021/01/04 06:54:35;;;;;;;48.78;27.65;;;;;;;;;;6242455;22;20003;-80
2021/01/04 06:57:04;;;;;;;45.95;27.83;;;;;;;;;;6212388;22;20027;-79
2021/01/04 06:59:50;;;;;;;48.72;29.23;;;;;;;;;;6270118;22;20070;-81
2021/01/04 07:02:35;;;;;;;51.10;28.98;;;;;;;;;;6269814;22;20079;-80
2021/01/04 07:05:20;;;;;;;48.22;29.77;;;;;;;;;;6269707;22;20016;-80
2021/01/04 07:07:48;;;;;;;51.15;29.75;;;;;;;;;;6269873;22;20078;-80
2021/01/04 07:10:17;;;;;;;45.70;27.65;;;;;;;;;;6243429;22;20032;-80
2021/01/04 07:13:10;;;;;;;49.83;29.17;;;;;;;;;;6243509;22;19996;-80
2021/01/04 07:15:39;;;;;;;49.25;28.08;;;;;;;;;;6269614;22;19995;-80
2021/01/04 07:18:14;;;;;;;51.28;29.30;;;;;;;;;;6243747;22;20118;-81
2021/01/04 07:20:56;;;;;;;50.35;28.45;;;;;;;;;;6243161;22;20015;-80
2021/01/04 07:23:36;;;;;;;51.75;30.10;;;;;;;;;;6270824;22;20440;-80
2021/01/04 07:26:14;;;;;;;52.28;29.75;;;;;;;;;;6242683;22;20384;-78
2021/01/04 07:28:59;;;;;;;49.85;28.90;;;;;;;;;;6270471;22;20007;-80
2021/01/04 07:31:32;;;;;;;53.00;30.85;;;;;;;;;;6270903;22;20000;-80
2021/01/04 07:34:00;;;;;;;50.40;30.30;;;;;;;;;;6270956;22;20034;-78
2021/01/04 07:36:40;;;;;;;51.42;29.00;;;;;;;;;;6242648;22;20004;-80
2021/01/04 07:39:25;;;;;;;52.47;30.40;;;;;;;;;;6243132;22;20000;-79
2021/01/04 07:42:17;;;;;;;49.97;30.13;;;;;;;;;;6243420;22;20332;-79
2021/01/04 07:44:43;;;;;;;50.55;28.33;;;;;;;;;;6211575;22;20078;-80
2021/01/04 07:47:12;;;;;;;46.35;28.02;;;;;;;;;;6243441;22;20522;-80
2021/01/04 07:49:38;;;;;;;51.22;29.73;;;;;;;;;;6269435;22;20448;-80
2021/01/04 07:52:26;;;;;;;48.88;28.08;;;;;;;;;;6270120;22;20062;-80
2021/01/04 07:54:51;;;;;;;;;;;;;;;;;;6270122;22;20075;-80
2021/01/04 07:57:27;;;;;;;61.40;32.25;;;;;;;;;;6270301;22;20247;-79
2021/01/04 08:00:05;;;;;;;88.70;41.58;;;;;;;;;;6241182;22;20008;-78
2021/01/04 08:02:31;;;;;;;52.95;30.30;;;;;;;;;;6269713;22;20751;-79
2021/01/04 08:05:05;;;;;;;85.72;49.45;;;;;;;;;;6267428;22;20011;-78
2021/01/04 08:07:36;;;;;;;76.97;41.38;;;;;;;;;;6269738;22;20020;-79
2021/01/04 08:10:05;;;;;;;114.57;60.67;;;;;;;;;;6243835;22;20026;-78
2021/01/04 08:12:35;;;;;;;68.18;38.58;;;;;;;;;;6242541;22;20000;-79
2021/01/04 08:15:26;;;;;;;82.70;49.63;;;;;;;;;;6269378;22;20091;-79
2021/01/04 08:17:54;;;;;;;59.15;35.50;;;;;;;;;;6270519;22;20007;-78
2021/01/04 08:20:21;;;;;;;58.30;33.15;;;;;;;;;;6269315;22;20075;-78
2021/01/04 08:22:56;;;;;;;44.88;26.15;;;;;;;;;;6269961;22;20088;-79
2021/01/04 08:25:52;;;;;;;53.75;32.03;;;;;;;;;;6242653;22;20092;-80
2021/01/04 08:28:23;;;;;;;48.45;28.27;;;;;;;;;;6110751;22;20024;-79
2021/01/04 08:31:01;;;;;;;51.15;28.80;;;;;;;;;;6269272;22;19995;-80
2021/01/04 08:33:41;;;;;;;50.95;29.45;;;;;;;;;;6243258;22;20445;-80
2021/01/04 08:36:16;;;;;;;52.03;30.15;;;;;;;;;;6269046;22;20000;-78
2021/01/04 08:38:42;;;;;;;50.97;30.00;;;;;;;;;;6270296;22;20004;-79
2021/01/04 08:41:21;;;;;;;52.10;30.40;;;;;;;;;;6269968;22;20004;-80
2021/01/04 08:43:49;;;;;;;59.65;33.30;;;;;;;;;;6269010;22;20774;-78
2021/01/04 08:46:15;;;;;;;;;;;;;;;;;;6270196;22;20087;-79
2021/01/04 08:48:41;;;;;;;50.53;28.08;;;;;;;;;;6268964;22;19930;-78
2021/01/04 08:51:09;;;;;;;47.13;27.58;;;;;;;;;;6268759;22;20083;-79
2021/01/04 08:53:35;;;;;;;48.25;27.77;;;;;;;;;;6269909;22;20019;-78
2021/01/04 08:56:14;;;;;;;47.45;28.25;;;;;;;;;;6269307;22;20022;-79
2021/01/04 08:58:43;;;;;;;54.28;30.17;;;;;;;;;;6268954;22;20003;-80
2021/01/04 09:01:20;;;;;;;51.15;30.45;;;;;;;;;;6269892;22;20007;-79
2021/01/04 09:03:46;;;;;;;50.03;28.92;;;;;;;;;;6269817;22;20079;-80
2021/01/04 09:06:12;;;;;;;50.67;29.92;;;;;;;;;;6240895;22;20404;-79
2021/01/04 09:08:44;;;;;;;44.92;26.92;;;;;;;;;;6242973;22;20035;-80
2021/01/04 09:11:11;;;;;;;45.80;26.73;;;;;;;;;;6269966;22;20477;-81
2021/01/04 09:13:39;;;;;;;49.63;28.85;;;;;;;;;;6269498;22;20003;-80
2021/01/04 09:16:10;;;;;;;48.88;27.80;;;;;;;;;;6269027;22;20023;-79
2021/01/04 09:18:43;;;;;;;54.28;29.73;;;;;;;;;;6242332;22;20003;-78
2021/01/04 09:21:18;;;;;;;52.10;29.77;;;;;;;;;;6241490;22;20488;-79
2021/01/04 09:23:45;;;;;;;47.47;28.08;;;;;;;;;;6269911;22;20041;-79
2021/01/04 09:26:29;;;;;;;49.65;29.52;;;;;;;;;;6241669;22;20003;-79
2021/01/04 09:29:03;;;;;;;53.28;30.23;;;;;;;;;;6269598;22;20010;-80
2021/01/04 09:31:29;;;;;;;54.15;30.05;;;;;;;;;;6242005;22;20314;-77
2021/01/04 09:33:55;;;;;;;48.15;28.70;;;;;;;;;;6243031;22;20022;-79
2021/01/04 09:36:23;;;;;;;50.50;29.05;;;3.40;99.90;;;;;;6268531;22;20407;-80
2021/01/04 09:38:50;;;;;;;52.40;30.63;;;2.80;99.90;;;;;;6269638;22;19996;-81
2021/01/04 09:41:16;;;;;;;45.45;25.73;;;;;;;;;;6269249;22;20345;-80
2021/01/04 09:43:43;;;;;;;50.80;29.20;;;2.60;99.90;;;;;;6242168;22;20000;-79
2021/01/04 09:46:22;;;;;;;52.05;28.80;;;;;;;;;;6241423;22;20004;-79
2021/01/04 09:49:00;;;;;;;51.08;29.42;;;;;;;;;;6241830;22;20007;-79
2021/01/04 09:51:34;;;;;;;47.58;27.65;;;;;;;;;;6241934;22;20007;-80
2021/01/04 09:54:02;;;;;;;49.55;28.30;;;;;;;;;;6241887;22;20026;-77
2021/01/04 09:56:33;;;;;;;50.22;29.42;;;;;;;;;;6269419;22;20000;-79
2021/01/04 09:59:04;;;;;;;47.53;28.50;;;;;;;;;;6269071;22;20672;-77
2021/01/04 10:01:31;;;;;;;49.75;28.42;;;;;;;;;;6272442;22;20018;-79
2021/01/04 10:03:57;;;;;;;;;;;;;;;;;;6245613;22;20019;-78
2021/01/04 10:06:24;;;;;;;50.30;28.70;;;;;;;;;;6271852;22;20011;-78
2021/01/04 10:08:51;;;;;;;54.03;30.20;;;;;;;;;;6272905;22;20073;-78
2021/01/04 10:11:19;;;;;;;54.33;30.13;;;;;;;;;;6272042;22;20079;-80
2021/01/04 10:13:46;;;;;;;55.50;30.38;;;;;;;;;;6245835;22;20237;-78
2021/01/04 10:16:17;;;;;;;51.13;30.13;;;;;;;;;;6272469;22;20436;-79
2021/01/04 10:18:52;;;;;;;53.80;28.90;;;;;;;;;;6247135;22;20129;-79
2021/01/04 10:21:21;;;;;;;57.05;31.02;;;;;;;;;;6274183;22;20042;-80
2021/01/04 10:23:50;;;;;;;49.22;27.63;;;;;;;;;;6274838;22;20012;-79
2021/01/04 10:26:16;;;;;;;48.78;29.48;;;;;;;;;;6247012;22;20008;-79
2021/01/04 10:28:42;;;;;;;46.17;26.58;;;;;;;;;;6274133;22;20008;-80
2021/01/04 10:31:08;;;;;;;48.67;27.35;;;;;;;;;;6274285;22;19996;-79
2021/01/04 10:33:36;;;;;;;47.40;27.75;;;;;;;;;;6244814;22;20462;-80
2021/01/04 10:36:05;;;;;;;47.75;27.45;;;;;;;;;;6246778;22;20027;-79
2021/01/04 10:38:32;;;;;;;50.13;29.10;;;;;;;;;;6247290;22;20455;-80
2021/01/04 10:40:58;;;;;;;49.55;29.30;;;;;;;;;;6272165;22;20014;-81
2021/01/04 10:43:25;;;;;;;51.47;28.77;;;;;;;;;;6273119;22;20003;-79
2021/01/04 10:45:51;;;;;;;52.35;30.67;;;;;;;;;;6245780;22;20011;-80
2021/01/04 10:48:20;;;;;;;48.08;27.55;;;;;;;;;;6246018;22;20062;-79
2021/01/04 10:50:47;;;;;;;48.17;27.65;;;;;;;;;;6245447;22;20028;-79
2021/01/04 10:53:29;;;;;;;49.45;27.33;;;;;;;;;;6273344;22;20045;-80
2021/01/04 10:56:10;;;;;;;42.03;25.17;;;;;;;;;;6244702;22;20004;-80
2021/01/04 10:58:40;;;;;;;44.72;26.02;;;;;;;;;;6275117;22;20369;-81
2021/01/04 11:01:12;;;;;;;42.90;24.15;;;;;;;;;;6273720;22;20499;-80
2021/01/04 11:03:41;;;;;;;39.42;23.38;;;;;;;;;;6275138;22;20407;-80
2021/01/04 11:06:22;;;;;;;37.88;22.45;;;;;;;;;;6247117;22;20141;-81
2021/01/04 11:08:48;;;;;;;36.95;22.52;;;;;;;;;;6273477;22;20496;-81
2021/01/04 11:11:35;;;;;;;38.30;22.98;;;;;;;;;;6245778;22;20000;-78
2021/01/04 11:14:08;;;;;;;34.85;21.27;;;;;;;;;;6272094;22;20227;-81
2021/01/04 11:16:53;;;;;;;36.45;22.40;;;;;;;;;;6272800;22;20004;-78
2021/01/04 11:19:33;;;;;;;35.75;21.85;;;;;;;;;;6272480;22;19996;-79
2021/01/04 11:22:28;;;;;;;38.20;22.50;;;;;;;;;;6245629;22;20003;-78
2021/01/04 11:25:00;;;;;;;33.63;19.88;;;;;;;;;;6222975;22;20035;-79
2021/01/04 11:27:27;;;;;;;33.75;20.92;;;;;;;;;;6272380;22;20518;-79
2021/01/04 11:29:53;;;;;;;36.35;22.63;;;;;;;;;;6245675;22;20545;-78
2021/01/04 11:32:20;;;;;;;35.90;21.15;;;;;;;;;;6271681;22;20007;-77
2021/01/04 11:34:47;;;;;;;35.10;21.02;;;;;;;;;;6244330;22;20011;-79
2021/01/04 11:37:17;;;;;;;36.38;22.23;;;;;;;;;;6272674;22;20039;-79
2021/01/04 11:39:43;;;;;;;37.42;22.73;;;;;;;;;;6272954;22;20010;-78
2021/01/04 11:42:10;;;;;;;33.25;20.45;;;;;;;;;;6273339;22;20452;-79
2021/01/04 11:44:36;;;;;;;34.25;21.05;;;;;;;;;;6272966;22;19999;-79
2021/01/04 11:47:02;;;;;;;31.23;19.25;;;;;;;;;;6273099;22;20008;-78
2021/01/04 11:49:29;;;;;;;32.08;19.90;;;;;;;;;;6246411;22;20003;-78
2021/01/04 11:51:55;;;;;;;31.77;19.02;;;;;;;;;;6273921;22;19996;-79
2021/01/04 11:54:22;;;;;;;33.00;19.92;;;;;;;;;;6246031;22;20000;-79
2021/01/04 11:56:48;;;;;;;32.38;18.27;;;;;;;;;;6273483;22;20010;-79
2021/01/04 11:59:15;;;;;;;34.95;20.88;;;;;;;;;;6246702;22;20019;-79
2021/01/04 12:01:41;;;;;;;32.80;19.88;;;;;;;;;;6246226;22;20004;-78
2021/01/04 12:04:07;;;;;;;29.48;19.00;;;;;;;;;;6272507;22;20071;-79
2021/01/04 12:06:33;;;;;;;26.85;17.20;;;;;;;;;;6273597;22;20018;-79
2021/01/04 12:08:59;;;;;;;25.58;16.05;;;;;;;;;;6272878;22;19996;-79
2021/01/04 12:11:30;;;;;;;25.42;15.75;;;;;;;;;;6245481;22;20085;-77
2021/01/04 12:13:56;;;;;;;26.52;16.45;;;;;;;;;;6273106;22;20003;-80
2021/01/04 12:16:22;;;;;;;26.10;16.38;;;;;;;;;;6245289;22;20007;-76
2021/01/04 12:18:48;;;;;;;25.70;16.25;;;;;;;;;;6245321;22;20082;-80
2021/01/04 12:21:21;;;;;;;31.52;18.75;;;;;;;;;;6245798;22;20003;-79
2021/01/04 12:23:47;;;;;;;30.70;18.02;;;;;;;;;;6247274;22;20071;-79
2021/01/04 12:26:13;;;;;;;25.92;16.17;;;;;;;;;;6273870;22;20458;-81
2021/01/04 12:28:39;;;;;;;28.52;16.95;;;;;;;;;;6273399;22;19996;-80
2021/01/04 12:31:05;;;;;;;25.25;15.45;;;;;;;;;;6275036;22;20004;-81
2021/01/04 12:33:31;;;;;;;27.80;15.77;;;;;;;;;;6277210;22;20026;-78
2021/01/04 12:35:57;;;;;;;26.50;16.38;;;;;;;;;;6272898;22;19995;-78
2021/01/04 12:38:23;;;;;;;25.35;15.95;;;;;;;;;;6249203;22;20057;-79
2021/01/04 12:40:49;;;;;;;45.95;23.83;;;;;;;;;;6246220;22;20003;-78
2021/01/04 12:43:15;;;;;;;67.97;28.70;;;;;;;;;;6271941;22;20008;-78
2021/01/04 12:45:42;;;;;;;30.80;16.42;;;;;;;;;;6271466;22;20209;-80
2021/01/04 12:48:08;;;;;;;30.10;15.63;;;;;;;;;;6244949;22;20007;-79
2021/01/04 12:50:34;;;;;;;26.90;15.38;;;;;;;;;;6246005;22;20026;-78
2021/01/04 12:53:00;;;;;;;46.30;21.63;;;;;;;;;;6273402;22;19999;-77
2021/01/04 12:55:26;;;;;;;37.92;19.38;;;;;;;;;;6243881;22;19999;-79
2021/01/04 12:57:52;;;;;;;44.80;17.30;;;;;;;;;;6245898;22;20039;-78
2021/01/04 13:00:23;;;;;;;41.45;20.92;;;;;;;;;;6243256;22;20003;-79
2021/01/04 13:02:50;;;;;;;31.73;18.10;;;;;;;;;;6270772;22;20004;-78
2021/01/04 13:05:16;;;;;;;44.53;21.58;;;;;;;;;;6271772;22;20415;-79
2021/01/04 13:07:43;;;;;;;35.45;17.95;;;;;;;;;;6271826;22;20780;-79
2021/01/04 13:10:10;;;;;;;57.05;26.08;;;;;;;;;;6271972;22;20506;-79
2021/01/04 13:12:37;;;;;;;39.20;20.00;;;;;;;;;;6273330;22;20003;-80
2021/01/04 13:15:03;;;;;;;29.80;17.83;;;;;;;;;;6246614;22;20011;-81
2021/01/04 13:17:29;;;;;;;26.23;15.82;;;;;;;;;;6247214;22;20004;-80
2021/01/04 13:19:55;;;;;;;49.08;24.92;;;;;;;;;;6272550;22;20038;-80
2021/01/04 13:22:22;;;;;;;28.55;16.90;;;;;;;;;;6273192;22;20006;-80
2021/01/04 13:24:48;;;;;;;26.23;16.98;;;;;;;;;;6272279;22;20038;-79
2021/01/04 13:27:14;;;;;;;24.85;15.95;;;;;;;;;;6244252;22;19999;-79
2021/01/04 13:29:42;;;;;;;24.17;15.95;;;;;;;;;;6243598;22;20248;-78
2021/01/04 13:32:09;;;;;;;24.27;14.98;;;;;;;;;;6270265;22;20003;-79
2021/01/04 13:34:36;;;;;;;29.73;18.40;;;;;;;;;;6269163;22;20310;-79
2021/01/04 13:37:03;;;;;;;30.58;19.65;;;;;;;;;;6244384;22;20095;-81
2021/01/04 13:39:29;;;;;;;27.33;17.30;;;;;;;;;;6275054;22;20379;-80
2021/01/04 13:41:56;;;;;;;30.42;18.75;;;;;;;;;;6244609;22;20336;-79
2021/01/04 13:44:23;;;;;;;28.35;18.45;;;;;;;;;;6245572;22;20455;-79
2021/01/04 13:46:49;;;;;;;32.55;18.70;;;;;;;;;;6245300;22;20004;-80
2021/01/04 13:49:15;;;;;;;34.92;19.67;;;;;;;;;;6272985;22;20107;-80
2021/01/04 13:51:49;;;;;;;33.75;19.20;;;;;;;;;;6273026;22;20057;-79
2021/01/04 13:54:16;;;;;;;31.02;19.30;;;;;;;;;;6245553;22;20003;-80
2021/01/04 13:56:48;;;;;;;31.40;18.33;;;;;;;;;;6245259;22;20885;-80
2021/01/04 13:59:15;;;;;;;38.75;22.85;;;;;;;;;;6246275;22;20011;-80
2021/01/04 14:01:42;;;;;;;43.03;24.33;;;;;;;;;;6246604;22;20004;-78
2021/01/04 14:04:08;;;;;;;34.85;20.05;;;;;;;;;;6245035;22;20006;-80
2021/01/04 14:06:38;;;;;;;31.50;20.02;;;;;;;;;;6245113;22;20091;-78
2021/01/04 14:09:05;;;;;;;51.42;27.60;;;;;;;;;;6245666;22;20003;-77
2021/01/04 14:11:31;;;;;;;33.35;20.52;;;;;;;;;;6244842;22;20433;-80
2021/01/04 14:13:57;;;;;;;33.42;20.65;;;;;;;;;;6272294;22;20000;-80
2021/01/04 14:16:26;;;;;;;32.17;19.58;;;;;;;;;;6271974;22;19999;-80
2021/01/04 14:18:53;;;;;;;47.95;28.27;;;;;;;;;;6244557;22;20117;-79
2021/01/04 14:21:19;;;;;;;32.87;19.93;;;;;;;;;;6245772;22;20014;-79
2021/01/04 14:23:46;;;;;;;40.05;23.75;;;;;;;;;;6245305;22;20241;-79
2021/01/04 14:26:12;;;;;;;50.95;28.00;;;;;;;;;;6271731;22;20023;-79
2021/01/04 14:28:38;;;;;;;35.00;20.75;;;;;;;;;;6244156;22;20008;-79
2021/01/04 14:31:04;;;;;;;35.58;20.83;;;;;;;;;;6269277;22;20007;-79
2021/01/04 14:33:30;;;;;;;37.08;20.70;;;;;;;;;;6242151;22;20015;-79
2021/01/04 14:35:56;;;;;;;42.50;23.75;;;;;;;;;;6268894;22;20312;-79
2021/01/04 14:38:22;;;;;;;35.70;20.80;;;;;;;;;;6268807;22;20014;-78
2021/01/04 14:40:48;;;;;;;36.05;21.73;;;;;;;;;;6269612;22;20028;-79